Time;durP1;ratioP1;P1;durP2;ratioP2;P2;SDS_P1;SDS_P2;PMS_P1;PMS_P2;Temp;Humidity;BMP_temperature;BMP_pressure;BME280_temperature;BME280_humidity;BME280_pressure;Samples;Min_cycle;Max_cycle;Signal;HPM_P1;HPM_P2
2024/02/13 08:58:25;;;;;;;4.83;4.23;;;;;;;18.39;71.71;99213.91;5170351;27;21396;-86
2024/02/13 09:00:53;;;;;;;5.60;4.23;;;;;;;18.69;68.04;99226.41;5162869;27;40087;-87
2024/02/13 09:03:22;;;;;;;4.03;3.63;;;;;;;17.65;68.61;99196.38;5132810;27;40801;-87
2024/02/13 09:05:50;;;;;;;6.37;4.43;;;;;;;16.71;67.98;99238.09;5135464;27;41896;-86
2024/02/13 09:08:18;;;;;;;5.63;4.50;;;;;;;15.88;70.63;99215.44;5135904;27;42577;-86
2024/02/13 09:10:45;;;;;;;6.10;4.23;;;;;;;15.28;71.64;99217.34;5171766;27;39979;-86
2024/02/13 09:13:13;;;;;;;5.10;4.03;;;;;;;14.81;71.27;99226.25;5135955;27;42482;-86
2024/02/13 09:15:42;;;;;;;7.87;4.67;;;;;;;14.59;72.35;99210.97;5135638;27;41626;-91
2024/02/13 09:18:09;;;;;;;5.57;4.37;;;;;;;14.51;73.45;99210.69;5135800;27;44057;-86
2024/02/13 09:20:38;;;;;;;6.97;5.30;;;;;;;14.26;69.01;99232.03;5136268;27;39267;-88
2024/02/13 09:23:06;;;;;;;6.87;4.93;;;;;;;13.95;70.81;99226.22;5135914;27;40861;-88
2024/02/13 09:25:38;;;;;;;11.20;5.57;;;;;;;13.67;71.41;99210.47;5153020;27;42903;-88
2024/02/13 09:28:06;;;;;;;7.90;5.50;;;;;;;13.84;73.02;99223.47;5135689;27;40875;-88
2024/02/13 09:30:33;;;;;;;8.13;5.23;;;;;;;13.82;68.08;99260.00;5153397;27;40150;-90
2024/02/13 09:33:03;;;;;;;7.23;5.50;;;;;;;13.68;71.14;99230.81;5151187;27;42514;-88
2024/02/13 09:35:31;;;;;;;7.73;5.77;;;;;;;13.66;69.83;99238.06;5134700;27;42602;-87
2024/02/13 09:37:59;;;;;;;7.63;5.53;;;;;;;13.62;67.98;99255.19;5151480;27;43709;-86
2024/02/13 09:40:29;;;;;;;8.63;4.83;;;;;;;13.47;67.05;99264.22;5117229;27;41629;-87
2024/02/13 09:42:56;;;;;;;7.40;5.17;;;;;;;13.26;66.40;99269.16;5134491;27;41152;-88
2024/02/13 09:45:25;;;;;;;6.53;5.20;;;;;;;13.08;68.04;99267.72;5151543;27;43014;-90
2024/02/13 09:47:53;;;;;;;8.00;5.10;;;;;;;12.60;67.69;99251.34;5134285;27;41247;-89
2024/02/13 09:50:37;;;;;;;;;;;;;;;;;;;;;
2024/02/13 09:53:14;;;;;;;5.63;4.30;;;;;;;12.00;71.69;99256.06;5151322;27;41796;-86
2024/02/13 09:55:42;;;;;;;7.07;5.60;;;;;;;12.30;70.83;99259.47;5134247;27;41749;-88
2024/02/13 09:58:09;;;;;;;7.97;4.67;;;;;;;12.47;69.07;99282.31;5133837;27;43013;-88
2024/02/13 10:00:37;;;;;;;5.00;4.00;;;;;;;12.08;68.58;99270.59;5134433;27;40403;-88
2024/02/13 10:03:06;;;;;;;7.40;4.33;;;;;;;12.12;70.54;99288.00;5152680;27;41926;-88
2024/02/13 10:05:35;;;;;;;4.53;4.13;;;;;;;12.04;68.56;99294.75;5135049;27;44153;-86
2024/02/13 10:08:05;;;;;;;5.73;4.00;;;;;;;11.79;67.97;99296.25;5147870;27;42559;-86
2024/02/13 10:10:32;;;;;;;5.20;3.63;;;;;;;11.66;68.65;99286.44;5121439;27;38763;-84
2024/02/13 10:13:00;;;;;;;6.33;3.70;;;;;;;11.65;68.27;99308.59;5121051;27;42024;-85
2024/02/13 10:15:39;;;;;;;3.97;3.53;;;;;;;11.78;69.08;99288.38;5156814;27;42645;-88
2024/02/13 10:18:08;;;;;;;5.63;3.93;;;;;;;12.27;66.60;99312.75;5138327;27;42393;-85
2024/02/13 10:20:37;;;;;;;5.47;3.20;;;;;;;13.13;64.03;99319.63;5138357;27;39058;-86
2024/02/13 10:23:05;;;;;;;5.53;3.03;;;;;;;12.92;64.19;99316.56;5121222;27;40504;-84
2024/02/13 10:25:33;;;;;;;5.07;3.03;;;;;;;12.86;63.07;99305.47;5121057;27;41476;-87
2024/02/13 10:28:01;;;;;;;2.87;2.57;;;;;;;13.10;64.01;99321.66;5121055;27;41214;-87
2024/02/13 10:30:31;;;;;;;4.90;3.13;;;;;;;13.43;64.03;99299.97;5119229;27;39029;-86
2024/02/13 10:33:01;;;;;;;5.03;2.90;;;;;;;13.72;62.09;99327.28;5119322;27;40584;-88
2024/02/13 10:46:13;;;;;;;3.57;2.20;;;;;;;13.00;62.85;99326.69;4913998;29;43329;-87
2024/02/13 10:49:35;;;;;;;2.80;2.50;;;;;;;13.24;62.93;99326.94;4915367;29;41836;-86
2024/02/13 10:52:17;;;;;;;3.80;2.47;;;;;;;13.24;61.98;99332.25;4898964;29;42419;-89
2024/02/13 10:55:06;;;;;;;3.83;2.80;;;;;;;13.25;63.14;99316.19;4900567;29;39239;-88
2024/02/13 10:57:50;;;;;;;5.60;2.60;;;;;;;13.21;61.38;99327.16;4899321;29;42272;-90
2024/02/13 11:00:37;;;;;;;3.13;2.27;;;;;;;13.25;62.35;99304.69;4900275;29;42047;-87
2024/02/13 11:03:18;;;;;;;3.97;2.30;;;;;;;14.59;61.58;99309.59;4899026;29;43071;-87
2024/02/13 11:06:07;;;;;;;2.30;2.10;;;;;;;14.61;59.48;99329.00;4900626;29;39254;-90
2024/02/13 11:08:49;;;;;;;3.07;2.13;;;;;;;14.63;58.58;99321.75;4915337;29;40458;-86
2024/02/13 11:11:36;;;;;;;2.93;2.50;;;;;;;14.35;57.54;99327.28;4900700;29;42957;-85
2024/02/13 11:14:23;;;;;;;2.20;2.00;;;;;;;14.46;58.90;99329.25;4915095;29;43085;-88
2024/02/13 11:17:13;;;;;;;2.30;2.10;;;;;;;15.19;57.88;99310.59;4900894;29;39118;-88
2024/02/13 11:20:14;;;;;;;4.37;2.50;;;;;;;17.77;56.80;99307.81;4915279;29;40956;-88
2024/02/13 11:23:29;;;;;;;3.07;1.97;;;;;;;20.42;49.57;99347.31;4916569;29;42930;-87
2024/02/13 11:26:10;;;;;;;2.13;1.97;;;;;;;22.16;47.06;99330.06;4900518;29;43042;-89
2024/02/13 11:28:58;;;;;;;3.27;1.80;;;;;;;24.90;41.35;99389.50;4901074;29;41786;-85
2024/02/13 11:31:38;;;;;;;4.50;2.20;;;;;;;24.51;39.22;99386.72;4916240;29;42622;-90
2024/02/13 11:34:41;;;;;;;1.90;1.60;;;;;;;22.65;40.51;99382.50;4901703;29;41534;-87
2024/02/13 11:37:31;;;;;;;1.93;1.73;;;;;;;21.41;40.91;99374.50;4900742;29;43196;-86
2024/02/13 11:40:21;;;;;;;2.07;1.80;;;;;;;21.60;41.55;99333.97;4916196;29;39141;-89
2024/02/13 11:43:12;;;;;;;2.50;1.80;;;;;;;23.49;40.89;99370.91;4899853;29;42130;-88
2024/02/13 11:46:00;;;;;;;1.87;1.40;;;;;;;25.34;37.96;99370.88;4899398;29;42400;-87
2024/02/13 11:48:40;;;;;;;3.00;1.93;;;;;;;26.21;35.72;99385.06;4913581;29;42509;-89
2024/02/13 11:51:28;;;;;;;1.43;1.30;;;;;;;27.01;35.43;99377.16;4911956;29;40015;-86
2024/02/13 11:54:08;;;;;;;1.92;1.38;;;;;;;27.69;33.55;99392.28;4898005;29;42270;-87
2024/02/13 11:56:57;;;;;;;1.50;1.38;;;;;;;28.10;32.59;99390.59;4899437;29;44724;-85
2024/02/13 11:59:39;;;;;;;2.17;1.60;;;;;;;26.80;33.54;99370.56;4898895;29;42180;-87
2024/02/13 12:02:28;;;;;;;2.65;1.08;;;;;;;28.13;31.79;99382.03;4899814;29;42059;-89
2024/02/13 12:05:10;;;;;;;3.17;1.50;;;;;;;28.69;31.07;99371.16;4898590;29;40663;-89
2024/02/13 12:07:58;;;;;;;3.03;1.40;;;;;;;28.92;30.66;99390.03;4899334;29;41993;-87
2024/02/13 12:10:38;;;;;;;1.73;1.00;;;;;;;27.30;31.25;99371.69;4898406;29;43665;-88
2024/02/13 12:13:30;;;;;;;2.17;1.27;;;;;;;25.90;32.74;99364.28;4899409;29;39380;-88
2024/02/13 12:16:14;;;;;;;3.23;1.10;;;;;;;25.80;32.76;99368.25;4898371;29;42510;-88
2024/02/13 12:19:01;;;;;;;2.80;1.27;;;;;;;26.26;32.27;99366.34;4899035;29;41532;-88
2024/02/13 12:21:42;;;;;;;2.53;1.20;;;;;;;27.20;30.84;99379.28;4898309;29;41621;-89
2024/02/13 12:24:32;;;;;;;1.30;1.08;;;;;;;28.06;28.94;99389.31;4899254;29;40915;-88
2024/02/13 12:27:15;;;;;;;0.85;0.85;;;;;;;28.03;29.45;99389.69;4897844;29;41800;-88
2024/02/13 12:30:04;;;;;;;1.17;1.08;;;;;;;29.24;28.37;99391.25;4898881;29;43460;-89
2024/02/13 12:32:45;;;;;;;1.60;1.00;;;;;;;30.64;27.29;99386.78;4913556;29;41543;-88
2024/02/13 12:35:33;;;;;;;2.80;1.00;;;;;;;31.34;26.22;99397.97;4899425;29;39071;-89
2024/02/13 12:38:19;;;;;;;1.58;1.02;;;;;;;31.49;25.58;99401.28;4897706;29;42887;-90
2024/02/13 12:41:06;;;;;;;2.30;0.80;;;;;;;32.81;23.91;99400.41;4898977;29;43359;-87
2024/02/13 12:43:47;;;;;;;2.42;0.90;;;;;;;33.47;22.56;99405.22;4898288;29;41303;-89
2024/02/13 12:46:36;;;;;;;1.42;1.05;;;;;;;33.50;21.78;99404.75;4899825;29;39884;-86
2024/02/13 12:49:19;;;;;;;0.77;0.70;;;;;;;33.12;21.94;99392.09;4899061;29;42685;-86
2024/02/13 12:52:07;;;;;;;1.02;0.90;;;;;;;33.86;22.21;99399.22;4899919;29;42115;-85
2024/02/13 12:54:49;;;;;;;2.05;1.08;;;;;;;34.25;21.65;99396.91;4899358;29;44098;-85
2024/02/13 12:57:38;;;;;;;1.15;1.00;;;;;;;34.44;21.60;99390.28;4900106;29;38678;-87
2024/02/13 13:00:22;;;;;;;2.15;0.88;;;;;;;34.81;21.06;99384.59;4899177;29;40717;-89
2024/02/13 13:03:12;;;;;;;0.88;0.85;;;;;;;35.42;21.31;99391.47;4914343;29;41951;-86
2024/02/13 13:05:53;;;;;;;1.33;1.00;;;;;;;35.64;20.80;99385.03;4914499;29;42513;-86
2024/02/13 13:08:42;;;;;;;0.95;0.80;;;;;;;35.53;21.93;99382.31;4899836;29;39822;-87
2024/02/13 13:11:23;;;;;;;2.58;0.90;;;;;;;35.01;20.72;99390.56;4898131;29;43234;-86
2024/02/13 13:14:12;;;;;;;2.20;1.00;;;;;;;33.60;21.63;99372.06;4898373;29;44915;-88
2024/02/13 13:16:54;;;;;;;1.88;1.08;;;;;;;31.19;23.31;99372.75;4910453;29;42202;-87
2024/02/13 13:19:43;;;;;;;1.50;1.10;;;;;;;28.82;25.59;99341.28;4910715;29;40061;-87
2024/02/13 13:22:26;;;;;;;1.30;0.90;;;;;;;27.30;26.98;99341.78;4897374;29;42295;-88
2024/02/13 13:25:13;;;;;;;1.43;1.10;;;;;;;25.89;27.99;99321.03;4898250;29;42297;-88
2024/02/13 13:27:59;;;;;;;0.80;0.77;;;;;;;24.66;29.38;99312.69;4896987;29;42890;-90
2024/02/13 13:30:46;;;;;;;1.00;0.90;;;;;;;23.59;30.26;99322.94;4898222;29;40603;-86
2024/02/13 13:33:30;;;;;;;2.03;1.10;;;;;;;22.87;30.81;99311.75;4897084;29;41234;-88
2024/02/13 13:36:21;;;;;;;1.67;0.83;;;;;;;22.22;31.30;99302.44;4898620;29;42082;-88
2024/02/13 13:39:05;;;;;;;3.20;1.10;;;;;;;21.62;31.90;99291.53;4896966;29;41912;-85
2024/02/13 13:41:54;;;;;;;1.97;0.90;;;;;;;20.94;32.70;99284.91;4897927;29;41678;-88
2024/02/13 13:44:35;;;;;;;1.13;0.80;;;;;;;20.42;32.78;99282.75;4899219;29;42737;-87
2024/02/13 13:47:22;;;;;;;1.03;0.80;;;;;;;19.83;32.83;99298.31;4901160;29;42995;-88
2024/02/13 13:50:02;;;;;;;1.20;0.80;;;;;;;19.44;33.96;99295.59;4900406;29;41612;-85
2024/02/13 13:52:52;;;;;;;1.70;0.77;;;;;;;19.28;34.39;99289.97;4901249;29;39126;-85
2024/02/13 13:55:32;;;;;;;1.00;0.90;;;;;;;18.90;33.64;99294.28;4913440;29;42947;-85
2024/02/13 13:58:22;;;;;;;3.03;0.87;;;;;;;18.73;34.66;99305.66;4914559;29;42748;-86
2024/02/13 14:01:03;;;;;;;2.73;0.70;;;;;;;18.28;35.38;99287.25;4900250;29;40894;-87
2024/02/13 14:03:51;;;;;;;2.37;0.77;;;;;;;18.04;36.03;99278.66;4900782;29;40164;-87
2024/02/13 14:06:31;;;;;;;1.20;0.87;;;;;;;17.88;36.87;99270.25;4900287;29;42027;-87
2024/02/13 14:09:21;;;;;;;1.00;0.80;;;;;;;17.88;36.92;99278.28;4900898;29;43146;-86
2024/02/13 14:12:05;;;;;;;1.60;0.80;;;;;;;18.18;35.88;99285.47;4899864;29;43618;-86
2024/02/13 14:14:52;;;;;;;1.23;0.80;;;;;;;18.35;36.03;99278.66;4901056;29;38623;-85
2024/02/13 14:17:33;;;;;;;0.90;0.77;;;;;;;18.46;36.37;99281.25;4899978;29;41188;-87
2024/02/13 14:20:21;;;;;;;2.10;0.80;;;;;;;18.11;36.39;99253.03;4900526;29;43393;-86
2024/02/13 14:23:01;;;;;;;1.17;0.90;;;;;;;17.95;36.24;99276.75;4900098;29;41028;-88
2024/02/13 14:25:50;;;;;;;1.10;0.80;;;;;;;17.65;37.54;99277.56;4912884;29;40539;-87
2024/02/13 14:28:31;;;;;;;1.30;0.70;;;;;;;17.34;37.65;99273.03;4915530;29;41854;-85
2024/02/13 14:31:19;;;;;;;1.10;1.00;;;;;;;16.92;37.81;99282.81;4901163;29;42505;-86
2024/02/13 14:34:00;;;;;;;0.83;0.80;;;;;;;16.64;38.52;99263.66;4899499;29;42579;-87
2024/02/13 14:36:48;;;;;;;1.50;1.07;;;;;;;16.52;39.96;99264.63;4900727;29;39192;-86
2024/02/13 14:39:28;;;;;;;1.57;0.90;;;;;;;16.29;39.76;99262.94;4899591;29;40676;-86
2024/02/13 14:42:18;;;;;;;2.40;1.07;;;;;;;16.03;39.73;99273.84;4900275;29;43031;-87
2024/02/13 14:44:58;;;;;;;1.63;0.93;;;;;;;15.72;39.82;99261.16;4899683;29;42816;-86
2024/02/13 14:47:49;;;;;;;1.73;1.20;;;;;;;15.38;40.07;99271.72;4916538;29;40386;-87
2024/02/13 14:50:29;;;;;;;1.50;1.00;;;;;;;15.13;40.92;99265.66;4899594;29;43201;-85
2024/02/13 14:53:20;;;;;;;1.80;1.30;;;;;;;15.03;42.08;99265.50;4899914;29;43098;-85
2024/02/13 14:56:01;;;;;;;1.30;0.90;;;;;;;14.74;42.51;99249.84;4899517;29;41391;-85
2024/02/13 14:58:49;;;;;;;1.23;0.90;;;;;;;14.54;42.97;99236.25;4900088;29;40454;-87
2024/02/13 15:01:30;;;;;;;2.30;1.23;;;;;;;14.47;43.23;99246.50;4899589;29;41277;-85
2024/02/13 15:04:18;;;;;;;1.43;0.90;;;;;;;14.38;43.42;99253.31;4900377;29;43747;-86
2024/02/13 15:06:59;;;;;;;3.23;1.20;;;;;;;14.31;43.17;99251.22;4911954;29;42878;-87
2024/02/13 15:09:48;;;;;;;1.63;1.10;;;;;;;14.22;43.70;99257.19;4915868;29;39074;-86
2024/02/13 15:12:28;;;;;;;1.50;1.00;;;;;;;14.17;44.64;99270.00;4898950;29;41260;-86
2024/02/13 15:15:17;;;;;;;1.10;0.90;;;;;;;14.09;44.06;99277.69;4900035;29;42209;-85
2024/02/13 15:18:10;;;;;;;1.47;0.90;;;;;;;13.90;44.64;99262.97;4900241;29;43828;-86
2024/02/13 15:21:00;;;;;;;1.20;1.00;;;;;;;13.82;44.99;99275.13;4900494;29;38757;-86
2024/02/13 15:23:40;;;;;;;1.10;1.00;;;;;;;13.70;45.09;99267.97;4899136;29;41181;-87
2024/02/13 15:26:30;;;;;;;1.47;1.10;;;;;;;13.45;45.29;99260.81;4900049;29;42023;-87
2024/02/13 15:29:11;;;;;;;2.30;0.87;;;;;;;13.36;45.82;99267.59;4898531;29;42472;-86
2024/02/13 15:32:00;;;;;;;1.17;1.03;;;;;;;13.23;46.32;99269.34;4899525;29;39231;-86
2024/02/13 15:34:43;;;;;;;1.90;1.00;;;;;;;12.98;46.91;99229.41;4899114;29;40848;-86
2024/02/13 15:47:03;;;;;;;1.63;1.00;;;;;;;12.60;47.67;99248.69;4880142;29;43835;-86
2024/02/13 15:49:52;;;;;;;1.10;1.00;;;;;;;12.45;48.12;99242.56;4900841;29;42969;-86
2024/02/13 15:52:34;;;;;;;1.77;0.90;;;;;;;12.38;48.59;99265.13;4899781;29;41262;-86
2024/02/13 15:55:25;;;;;;;1.47;1.20;;;;;;;12.22;48.70;99261.75;4901062;29;39542;-86
2024/02/13 15:58:06;;;;;;;1.30;1.20;;;;;;;12.16;48.96;99267.44;4899191;29;42142;-86
2024/02/13 16:00:54;;;;;;;1.23;0.97;;;;;;;11.96;49.47;99260.72;4913667;29;43930;-88
2024/02/13 16:03:39;;;;;;;1.30;1.10;;;;;;;11.87;49.84;99267.44;4899369;29;42897;-93
2024/02/13 16:06:27;;;;;;;1.00;0.90;;;;;;;11.66;49.76;99255.44;4899738;29;38834;-87
2024/02/13 16:09:10;;;;;;;1.60;1.27;;;;;;;11.50;49.95;99257.31;4899478;29;41521;-93
2024/02/13 16:11:57;;;;;;;1.50;1.40;;;;;;;11.37;50.53;99265.16;4897591;29;41740;-89
2024/02/13 16:14:37;;;;;;;1.47;1.10;;;;;;;11.24;50.49;99258.03;4897947;29;42815;-88
2024/02/13 16:17:25;;;;;;;1.33;1.10;;;;;;;11.21;50.67;99274.94;4899633;29;40828;-88
2024/02/13 16:20:05;;;;;;;2.67;1.70;;;;;;;10.96;50.87;99253.47;4901240;29;43271;-90
2024/02/13 16:22:55;;;;;;;1.50;1.37;;;;;;;10.78;51.51;99256.22;4903368;29;43086;-89
2024/02/13 16:25:36;;;;;;;2.13;1.80;;;;;;;10.64;51.44;99250.84;4900740;29;44270;-88
2024/02/13 16:28:24;;;;;;;2.40;2.13;;;;;;;10.49;51.69;99258.81;4899812;29;41787;-90
2024/02/13 16:31:06;;;;;;;2.70;2.10;;;;;;;10.25;51.99;99239.84;4900623;29;42223;-90
2024/02/13 16:33:53;;;;;;;2.67;2.00;;;;;;;10.18;52.44;99255.19;4899556;29;43215;-89
2024/02/13 16:36:33;;;;;;;2.70;1.97;;;;;;;10.11;52.50;99267.03;4898653;29;41367;-89
2024/02/13 16:39:22;;;;;;;3.50;2.33;;;;;;;9.80;52.99;99243.13;4899487;29;40763;-89
2024/02/13 16:42:05;;;;;;;3.00;1.90;;;;;;;9.75;53.04;99261.91;4898228;29;42069;-92
2024/02/13 16:44:52;;;;;;;2.20;1.80;;;;;;;9.58;53.45;99262.78;4899897;29;41739;-85
2024/02/13 16:47:32;;;;;;;2.17;1.90;;;;;;;9.49;53.49;99279.13;4915263;29;42914;-90
2024/02/13 16:50:20;;;;;;;1.87;1.50;;;;;;;9.36;54.44;99275.41;4900603;29;38728;-87
2024/02/13 16:53:02;;;;;;;2.00;1.60;;;;;;;9.13;54.40;99266.00;4899138;29;40849;-88
2024/02/13 16:55:50;;;;;;;2.73;1.70;;;;;;;9.01;54.64;99271.88;4900640;29;41979;-90
2024/02/13 16:58:31;;;;;;;4.90;1.90;;;;;;;8.86;54.80;99273.50;4898998;29;41350;-89
2024/02/13 17:01:19;;;;;;;1.70;1.37;;;;;;;8.74;55.70;99274.09;4899947;29;42240;-89
2024/02/13 17:04:00;;;;;;;2.03;1.83;;;;;;;8.62;57.06;99274.69;4898822;29;42182;-88
2024/02/13 17:06:48;;;;;;;2.80;2.40;;;;;;;8.51;57.44;99261.13;4900329;29;43114;-91
2024/02/13 17:09:28;;;;;;;4.23;2.33;;;;;;;8.32;58.01;99249.72;4899545;29;41586;-90
2024/02/13 17:12:19;;;;;;;3.03;2.10;;;;;;;8.30;58.27;99253.25;4898675;29;40560;-88
2024/02/13 17:15:00;;;;;;;4.30;2.10;;;;;;;8.25;58.96;99252.63;4897879;29;42736;-88
2024/02/13 17:17:48;;;;;;;1.90;1.70;;;;;;;8.22;59.10;99265.97;4897387;29;42064;-87
2024/02/13 17:20:28;;;;;;;2.10;1.90;;;;;;;8.22;59.16;99273.88;4901344;29;41470;-89
2024/02/13 17:23:16;;;;;;;2.33;1.80;;;;;;;8.17;58.75;99278.50;4902419;29;40324;-89
2024/02/13 17:25:56;;;;;;;3.07;2.03;;;;;;;8.12;59.11;99277.88;4900374;29;42395;-89
2024/02/13 17:28:46;;;;;;;3.67;2.33;;;;;;;7.98;59.58;99268.88;4901437;29;41746;-88
2024/02/13 17:31:28;;;;;;;4.63;2.73;;;;;;;7.94;59.58;99276.91;4901495;29;41651;-88
2024/02/13 17:34:15;;;;;;;4.33;2.70;;;;;;;7.90;60.05;99269.22;4901136;29;38787;-87
2024/02/13 17:36:55;;;;;;;3.37;2.60;;;;;;;7.85;60.16;99271.19;4901377;29;40673;-88
2024/02/13 17:39:43;;;;;;;3.03;2.10;;;;;;;7.65;59.92;99243.09;4888080;29;43426;-89
2024/02/13 17:42:24;;;;;;;3.27;2.07;;;;;;;7.61;60.10;99254.69;4899014;29;40910;-90
2024/02/13 17:45:15;;;;;;;2.30;1.50;;;;;;;7.57;60.51;99277.69;4901616;29;40645;-84
2024/02/13 17:47:56;;;;;;;2.57;2.00;;;;;;;7.51;60.21;99285.88;4900440;29;40825;-88
2024/02/13 17:50:43;;;;;;;2.47;2.13;;;;;;;7.47;60.18;99286.91;4901048;29;41760;-89
2024/02/13 17:53:24;;;;;;;2.60;1.90;;;;;;;7.36;60.64;99283.03;4900075;29;41958;-88
2024/02/13 17:56:12;;;;;;;2.00;1.70;;;;;;;7.13;60.93;99262.94;4901995;29;40425;-88
2024/02/13 17:58:52;;;;;;;2.63;1.90;;;;;;;7.25;61.16;99291.38;4899940;29;41840;-87
2024/02/13 18:01:50;;;;;;;2.37;2.10;;;;;;;7.07;62.36;99276.34;4900793;29;41465;-87
2024/02/13 18:04:31;;;;;;;4.30;2.50;;;;;;;7.01;61.90;99281.88;4900719;29;42519;-86
2024/02/13 18:07:19;;;;;;;3.47;2.57;;;;;;;6.94;62.23;99283.03;4897550;29;39734;-89
2024/02/13 18:09:59;;;;;;;3.00;2.53;;;;;;;6.80;61.87;99271.28;4899471;29;42442;-88
2024/02/13 18:12:47;;;;;;;3.10;2.20;;;;;;;6.62;62.63;99248.34;4899576;29;42989;-91
2024/02/13 18:15:27;;;;;;;4.70;2.40;;;;;;;6.84;62.23;99291.31;4913949;29;42474;-90
2024/02/13 18:18:17;;;;;;;3.77;2.07;;;;;;;6.47;62.53;99239.28;4901163;29;39113;-89
2024/02/13 18:21:00;;;;;;;3.87;2.40;;;;;;;6.64;62.73;99270.22;4900683;29;42977;-90
2024/02/13 18:23:48;;;;;;;2.00;1.83;;;;;;;6.65;62.49;99277.19;4899948;29;43330;-88
2024/02/13 18:26:28;;;;;;;3.80;2.33;;;;;;;6.48;62.42;99250.69;4901169;29;41156;-88
2024/02/13 18:34:18;;;;;;;4.30;2.97;;;;;;;6.45;63.58;99282.34;4917324;29;42499;-87
2024/02/13 18:37:00;;;;;;;3.13;2.40;;;;;;;6.37;65.04;99280.03;4898419;29;43300;-86
2024/02/13 18:39:47;;;;;;;4.70;3.83;;;;;;;6.27;65.58;99267.31;4916528;29;41407;-89
2024/02/13 18:42:27;;;;;;;6.53;4.03;;;;;;;6.06;67.76;99226.88;4900936;29;38969;-87
2024/02/13 18:45:15;;;;;;;6.23;4.87;;;;;;;6.23;67.93;99253.41;4901731;29;40904;-87
2024/02/13 18:47:56;;;;;;;6.13;4.13;;;;;;;6.24;67.38;99252.50;4917091;29;42049;-88
2024/02/13 18:50:44;;;;;;;4.83;3.67;;;;;;;6.22;67.27;99258.72;4916011;29;42203;-91
2024/02/13 18:53:30;;;;;;;6.87;3.80;;;;;;;6.24;66.92;99272.69;4901164;29;41364;-88
2024/02/13 18:56:17;;;;;;;7.80;4.17;;;;;;;6.16;67.08;99265.09;4916502;29;40660;-87
2024/02/13 18:58:58;;;;;;;6.20;4.30;;;;;;;6.15;68.02;99265.16;4914936;29;41978;-88
2024/02/13 19:01:45;;;;;;;5.80;4.00;;;;;;;6.05;69.16;99252.34;4901533;29;41666;-88
2024/02/13 19:04:26;;;;;;;6.73;4.17;;;;;;;6.00;68.17;99256.91;4915995;29;42359;-89
2024/02/13 19:07:15;;;;;;;6.97;4.17;;;;;;;5.95;68.34;99263.25;4900974;29;42590;-89
2024/02/13 19:09:56;;;;;;;4.07;3.33;;;;;;;5.95;67.78;99265.88;4900775;29;41546;-87
2024/02/13 19:12:44;;;;;;;5.13;3.67;;;;;;;5.94;68.05;99267.66;4913336;29;44003;-88
2024/02/13 19:15:25;;;;;;;5.80;3.43;;;;;;;5.78;68.76;99254.19;4898575;29;39295;-88
2024/02/13 19:18:02;;;;;;;4.60;3.60;;;;;;;5.77;68.70;99263.00;4914195;29;41788;-88
2024/02/13 19:20:30;;;;;;;3.40;3.00;;;;;;;5.76;68.69;99266.53;4930724;29;42965;-89
2024/02/13 19:22:59;;;;;;;5.03;3.20;;;;;;;5.71;68.62;99259.72;4898401;29;42733;-90
2024/02/13 19:25:27;;;;;;;5.60;3.03;;;;;;;5.68;69.07;99251.97;4913620;29;40486;-86
2024/02/13 19:27:55;;;;;;;4.50;2.93;;;;;;;5.70;70.38;99247.50;4897473;29;41392;-86
2024/02/13 19:30:25;;;;;;;4.57;3.17;;;;;;;5.68;70.35;99236.22;4914138;29;42844;-85
2024/02/13 19:32:59;;;;;;;6.67;3.93;;;;;;;5.68;70.85;99233.59;4915518;29;42160;-85
2024/02/13 19:35:27;;;;;;;3.63;3.07;;;;;;;5.76;70.98;99249.91;4898152;29;41328;-86
2024/02/13 19:37:55;;;;;;;3.43;3.07;;;;;;;5.79;70.53;99255.06;4915034;29;41889;-86
2024/02/13 19:40:24;;;;;;;5.17;2.67;;;;;;;5.75;70.37;99251.69;4914102;29;43477;-85
2024/02/13 19:42:58;;;;;;;4.63;3.00;;;;;;;5.78;70.29;99246.31;4915029;29;41316;-86
2024/02/13 19:45:26;;;;;;;4.93;2.77;;;;;;;5.88;70.36;99254.75;4915777;29;39392;-85
2024/02/13 19:47:58;;;;;;;3.10;2.50;;;;;;;5.80;69.88;99240.16;4901200;29;40832;-86
2024/02/13 19:50:47;;;;;;;3.30;2.60;;;;;;;5.77;71.37;99225.34;4903149;29;41844;-85
2024/02/13 19:53:35;;;;;;;6.43;4.10;;;;;;;5.89;71.94;99240.69;4916241;29;41580;-85
2024/02/13 19:56:27;;;;;;;5.73;3.90;;;;;;;5.96;71.36;99260.56;4903507;29;38978;-85
2024/02/13 19:59:15;;;;;;;6.23;4.13;;;;;;;5.84;71.36;99249.63;4902751;29;41886;-85
2024/02/13 20:02:03;;;;;;;12.83;6.23;;;;;;;5.90;72.20;99266.06;4903071;29;43337;-85
2024/02/13 20:04:54;;;;;;;24.50;12.20;;;;;;;5.88;71.76;99274.88;4915906;29;43120;-85
2024/02/13 20:07:42;;;;;;;20.63;10.17;;;;;;;5.77;71.51;99260.38;4916374;29;39691;-86
2024/02/13 20:10:10;;;;;;;23.57;10.63;;;;;;;5.82;71.14;99270.69;4899969;29;41615;-85
2024/02/13 20:12:39;;;;;;;18.40;9.70;;;;;;;5.85;71.45;99262.72;4929879;29;42919;-85
2024/02/13 20:15:08;;;;;;;19.73;9.27;;;;;;;5.82;71.02;99254.94;4930065;29;42139;-86
2024/02/13 20:17:37;;;;;;;19.20;7.80;;;;;;;5.96;71.48;99273.72;4914474;29;40194;-85
2024/02/13 20:20:08;;;;;;;14.07;7.30;;;;;;;5.99;71.35;99273.59;4914146;29;40315;-86
2024/02/13 20:22:37;;;;;;;13.27;7.33;;;;;;;5.94;71.42;99259.75;4914208;29;43453;-85
2024/02/13 20:25:05;;;;;;;9.97;6.00;;;;;;;6.17;71.82;99293.09;4914348;29;43583;-86
2024/02/13 20:27:33;;;;;;;11.23;6.03;;;;;;;6.25;71.94;99295.44;4914455;29;40755;-86
2024/02/13 20:30:02;;;;;;;9.23;5.97;;;;;;;6.26;72.37;99294.53;4898141;29;42276;-87
2024/02/13 20:32:34;;;;;;;8.87;5.70;;;;;;;6.19;73.14;99285.13;4914683;29;42977;-86
2024/02/13 20:35:05;;;;;;;6.27;4.70;;;;;;;6.18;74.07;99283.44;4913454;29;41457;-86
2024/02/13 20:37:33;;;;;;;4.67;3.73;;;;;;;6.19;73.47;99279.88;4914227;29;38790;-86
2024/02/13 20:40:05;;;;;;;5.33;3.67;;;;;;;6.18;73.73;99280.81;4912104;29;43108;-88
2024/02/13 20:42:32;;;;;;;4.53;3.30;;;;;;;6.24;73.37;99288.47;4927456;29;42819;-86
2024/02/13 20:45:02;;;;;;;6.50;3.77;;;;;;;6.35;73.24;99299.41;4914907;29;41480;-86
2024/02/13 20:47:29;;;;;;;6.47;3.03;;;;;;;6.27;72.98;99290.97;4884014;29;41024;-88
2024/02/13 20:49:57;;;;;;;6.20;3.57;;;;;;;6.37;73.11;99301.09;4915085;29;40823;-87
2024/02/13 20:52:28;;;;;;;4.60;3.33;;;;;;;6.28;73.19;99290.06;4914661;29;43134;-86
2024/02/13 20:54:55;;;;;;;4.60;3.50;;;;;;;6.11;73.35;99260.00;4914703;29;41145;-86
2024/02/13 20:57:23;;;;;;;5.10;3.10;;;;;;;6.39;73.09;99303.66;4899280;29;39460;-87
2024/02/13 20:59:51;;;;;;;3.20;2.90;;;;;;;6.43;73.53;99307.88;4915215;29;41009;-89
2024/02/13 21:02:20;;;;;;;5.17;2.80;;;;;;;6.34;73.54;99295.06;4915233;29;42883;-86
2024/02/13 21:04:48;;;;;;;7.23;3.40;;;;;;;6.36;73.39;99290.63;4898584;29;43183;-89
2024/02/13 21:07:16;;;;;;;5.77;3.33;;;;;;;6.46;73.61;99305.13;4899031;29;38942;-87
2024/02/13 21:09:43;;;;;;;5.10;3.33;;;;;;;6.47;73.26;99309.47;4914621;29;41499;-86
2024/02/13 21:12:13;;;;;;;4.87;3.47;;;;;;;6.38;73.51;99294.06;4913156;29;42056;-86
2024/02/13 21:14:41;;;;;;;3.80;2.53;;;;;;;6.29;74.34;99276.00;4913407;29;42421;-90
2024/02/13 21:17:10;;;;;;;3.43;2.83;;;;;;;6.47;73.85;99306.84;4897871;29;40988;-88
2024/02/13 21:19:39;;;;;;;3.67;2.70;;;;;;;6.37;74.21;99284.44;4897383;29;40908;-86
2024/02/13 21:24:52;;;;;;;4.60;2.83;;;;;;;6.52;74.58;99307.53;4913296;29;42639;-86
2024/02/13 21:27:20;;;;;;;4.13;2.90;;;;;;;6.46;74.29;99294.59;4913647;29;40458;-87
2024/02/13 21:29:47;;;;;;;2.87;2.33;;;;;;;6.42;74.17;99291.25;4897510;29;41746;-87
2024/02/13 21:32:15;;;;;;;4.00;2.73;;;;;;;6.43;74.77;99292.09;4913759;29;41714;-86
2024/02/13 21:34:44;;;;;;;3.37;2.43;;;;;;;6.52;74.75;99310.16;4897248;29;42803;-86
2024/02/13 21:37:12;;;;;;;3.77;2.73;;;;;;;6.39;74.78;99277.34;4913026;29;39036;-86
2024/02/13 21:39:39;;;;;;;4.83;2.53;;;;;;;6.43;74.94;99284.19;4913854;29;40800;-88
2024/02/13 21:42:09;;;;;;;3.53;2.23;;;;;;;6.45;74.57;99287.63;4929315;29;43816;-86
2024/02/13 21:44:36;;;;;;;3.77;2.60;;;;;;;6.46;74.92;99276.19;4898742;29;41407;-87
2024/02/13 21:47:04;;;;;;;3.47;2.20;;;;;;;6.49;74.87;99283.97;4898827;29;41138;-87
2024/02/13 21:49:32;;;;;;;3.40;2.90;;;;;;;6.50;74.52;99285.69;4914058;29;41004;-88
2024/02/13 21:52:00;;;;;;;2.30;2.10;;;;;;;6.58;74.93;99294.13;4898727;29;41744;-87
2024/02/13 21:54:29;;;;;;;2.50;2.30;;;;;;;6.55;75.08;99283.75;4914299;29;41050;-88
2024/02/13 21:56:56;;;;;;;3.17;2.40;;;;;;;6.41;75.24;99262.38;4912436;29;40883;-87
2024/02/13 21:59:24;;;;;;;3.90;2.90;;;;;;;6.46;75.31;99271.78;4895379;29;41182;-86
2024/02/13 22:01:52;;;;;;;3.40;3.10;;;;;;;6.48;75.87;99271.72;4913744;29;43573;-86
2024/02/13 22:04:19;;;;;;;3.27;2.20;;;;;;;6.59;75.37;99293.22;4899286;29;41516;-87